Time;durP1;ratioP1;P1;durP2;ratioP2;P2;SDS_P1;SDS_P2;PMS_P1;PMS_P2;Temp;Humidity;BMP_temperature;BMP_pressure;BME280_temperature;BME280_humidity;BME280_pressure;Samples;Min_cycle;Max_cycle;Signal;HPM_P1;HPM_P2
2023/07/03 00:00:42;;;;;;;13.77;5.45;;;15.00;99.90;;;;;;5095623;28;20054;-66
2023/07/03 00:03:13;;;;;;;15.43;5.47;;;15.00;99.90;;;;;;5112711;28;20078;-65
2023/07/03 00:05:47;;;;;;;17.33;6.15;;;15.00;99.90;;;;;;5096606;28;20481;-65
2023/07/03 00:08:14;;;;;;;15.93;5.53;;;15.10;99.90;;;;;;5113806;28;20048;-65
2023/07/03 00:10:41;;;;;;;14.15;5.40;;;15.10;99.90;;;;;;5095635;28;20039;-65
2023/07/03 00:13:07;;;;;;;13.77;6.40;;;15.10;99.90;;;;;;5095507;28;20036;-65
2023/07/03 00:15:33;;;;;;;13.88;5.55;;;15.10;99.90;;;;;;5113670;28;20103;-65
2023/07/03 00:17:58;;;;;;;15.43;6.40;;;15.10;99.90;;;;;;5146808;27;20415;-65
2023/07/03 00:20:27;;;;;;;20.08;6.45;;;15.10;99.90;;;;;;5146344;27;20122;-65
2023/07/03 00:22:54;;;;;;;12.25;5.00;;;15.10;99.90;;;;;;5112987;28;20040;-64
2023/07/03 00:25:20;;;;;;;13.15;5.10;;;15.20;99.90;;;;;;5146404;27;20496;-65
2023/07/03 00:27:46;;;;;;;17.65;6.55;;;15.20;99.90;;;;;;5146227;27;20539;-65
2023/07/03 00:30:12;;;;;;;19.67;7.43;;;15.20;99.90;;;;;;5095038;28;20044;-65
2023/07/03 00:32:38;;;;;;;17.15;5.63;;;15.20;99.90;;;;;;5113205;28;20071;-65
2023/07/03 00:35:04;;;;;;;19.45;6.68;;;15.20;99.90;;;;;;5146535;27;20082;-64
2023/07/03 00:37:30;;;;;;;15.00;6.47;;;15.20;99.90;;;;;;5113256;28;20128;-65
2023/07/03 00:39:56;;;;;;;16.80;5.88;;;15.30;99.90;;;;;;5146226;27;20118;-64
2023/07/03 00:42:24;;;;;;;16.73;6.15;;;15.20;99.90;;;;;;5146316;27;20053;-65
2023/07/03 00:44:50;;;;;;;20.55;6.25;;;15.30;99.90;;;;;;5146251;27;20039;-64
2023/07/03 00:47:15;;;;;;;18.70;6.18;;;15.30;99.90;;;;;;5111910;28;20091;-65
2023/07/03 00:49:41;;;;;;;16.63;5.55;;;15.30;99.90;;;;;;5128471;27;20409;-64
2023/07/03 00:52:10;;;;;;;12.07;5.43;;;15.30;99.90;;;;;;5094631;28;20054;-65
2023/07/03 00:54:36;;;;;;;18.25;5.80;;;15.30;99.90;;;;;;5094793;28;20051;-64
2023/07/03 00:57:02;;;;;;;18.73;6.57;;;15.30;99.90;;;;;;5146124;27;20194;-65
2023/07/03 00:59:28;;;;;;;16.50;5.75;;;15.30;99.90;;;;;;5145618;27;20043;-65
2023/07/03 01:01:59;;;;;;;16.00;6.07;;;15.30;99.90;;;;;;5094392;28;20130;-64
2023/07/03 01:04:35;;;;;;;11.00;4.70;;;15.30;99.90;;;;;;5145677;27;20047;-64
2023/07/03 01:07:07;;;;;;;15.63;5.78;;;15.30;99.90;;;;;;5145907;27;20412;-64
2023/07/03 01:09:50;;;;;;;18.67;6.05;;;15.30;99.90;;;;;;5111202;28;20044;-64
2023/07/03 01:12:17;;;;;;;;;;;15.30;99.90;;;;;;5111770;28;20392;-64
2023/07/03 01:14:45;;;;;;;17.45;5.97;;;15.30;99.90;;;;;;5094374;28;19955;-65
2023/07/03 01:17:13;;;;;;;21.88;7.18;;;15.30;99.90;;;;;;5111244;28;20035;-65
2023/07/03 01:19:41;;;;;;;18.42;5.97;;;15.30;99.90;;;;;;5093892;28;20046;-65
2023/07/03 01:22:20;;;;;;;22.83;6.15;;;15.30;99.90;;;;;;5093887;28;20120;-65
2023/07/03 01:25:08;;;;;;;20.73;6.43;;;15.30;99.90;;;;;;5094136;28;20122;-64
2023/07/03 01:27:39;;;;;;;19.55;5.93;;;15.30;99.90;;;;;;5110811;28;20639;-64
2023/07/03 01:30:09;;;;;;;19.13;5.75;;;15.30;99.90;;;;;;5110678;28;20075;-65
2023/07/03 01:32:36;;;;;;;18.88;7.00;;;15.30;99.90;;;;;;5110999;28;20134;-65
2023/07/03 01:35:04;;;;;;;19.45;6.40;;;15.30;99.90;;;;;;5111121;28;20035;-64
2023/07/03 01:37:31;;;;;;;17.92;5.70;;;15.30;99.90;;;;;;5110906;28;20036;-65
2023/07/03 01:39:59;;;;;;;16.13;5.43;;;15.30;99.90;;;;;;5111675;28;20092;-65
2023/07/03 01:42:28;;;;;;;20.17;5.80;;;15.30;99.90;;;;;;5127737;27;20048;-65
2023/07/03 01:44:54;;;;;;;16.20;6.05;;;15.30;99.90;;;;;;5144967;27;20043;-66
2023/07/03 01:47:20;;;;;;;21.50;6.20;;;15.30;99.90;;;;;;5111749;28;20035;-64
2023/07/03 01:49:47;;;;;;;22.48;6.82;;;15.30;99.90;;;;;;5111523;28;20069;-65
2023/07/03 01:52:21;;;;;;;15.55;6.60;;;15.40;99.90;;;;;;5144843;27;20043;-65
2023/07/03 01:54:58;;;;;;;19.13;5.50;;;15.40;99.90;;;;;;5144812;27;20480;-65
2023/07/03 01:57:38;;;;;;;21.20;6.15;;;15.40;99.90;;;;;;5144643;27;20507;-65
2023/07/03 02:00:06;;;;;;;20.70;6.60;;;15.40;99.90;;;;;;5145118;27;20046;-65
2023/07/03 02:02:33;;;;;;;20.48;5.78;;;15.40;99.90;;;;;;5144708;27;20447;-65
2023/07/03 02:05:15;;;;;;;22.33;5.55;;;15.40;99.90;;;;;;5144934;27;20043;-65
2023/07/03 02:07:43;;;;;;;14.80;5.55;;;15.40;99.90;;;;;;5093271;28;20048;-65
2023/07/03 02:10:09;;;;;;;17.05;5.15;;;15.40;99.90;;;;;;5127229;27;20504;-64
2023/07/03 02:12:35;;;;;;;21.00;5.65;;;15.40;99.90;;;;;;5092977;28;20047;-65
2023/07/03 02:15:03;;;;;;;25.50;6.38;;;15.40;99.90;;;;;;5144495;27;20043;-65
2023/07/03 02:17:29;;;;;;;27.40;7.18;;;15.40;99.90;;;;;;5126922;27;20100;-65
2023/07/03 02:19:55;;;;;;;23.15;5.80;;;15.40;99.90;;;;;;5092832;28;20051;-65
2023/07/03 02:22:21;;;;;;;19.45;5.43;;;15.40;99.90;;;;;;5143896;27;20045;-65
2023/07/03 02:24:47;;;;;;;18.90;6.30;;;15.30;99.90;;;;;;5076189;28;20043;-65
2023/07/03 02:27:12;;;;;;;20.13;5.55;;;15.30;99.90;;;;;;5093027;28;20046;-65
2023/07/03 02:29:38;;;;;;;27.10;6.72;;;15.30;99.90;;;;;;5144049;27;20421;-65
2023/07/03 02:32:09;;;;;;;22.00;6.25;;;15.30;99.90;;;;;;5075850;28;20047;-65
2023/07/03 02:34:35;;;;;;;20.73;6.10;;;15.20;99.90;;;;;;5127419;27;20051;-65
2023/07/03 02:37:01;;;;;;;28.95;7.47;;;15.20;99.90;;;;;;5144102;27;20039;-65
2023/07/03 02:39:26;;;;;;;23.90;7.07;;;15.20;99.90;;;;;;5109744;28;20035;-65
2023/07/03 02:41:52;;;;;;;24.83;6.15;;;15.20;99.90;;;;;;5143914;27;20044;-65
2023/07/03 02:44:18;;;;;;;21.25;6.90;;;15.20;99.90;;;;;;5127151;27;20044;-65
2023/07/03 02:46:44;;;;;;;17.02;5.72;;;15.20;99.90;;;;;;5075560;28;20432;-67
2023/07/03 02:49:10;;;;;;;18.67;6.22;;;15.20;99.90;;;;;;5143903;27;20583;-65
2023/07/03 02:51:35;;;;;;;15.85;5.15;;;15.20;99.90;;;;;;5092140;28;20048;-65
2023/07/03 02:54:04;;;;;;;22.98;5.95;;;15.20;99.90;;;;;;5144044;27;20097;-65
2023/07/03 02:56:30;;;;;;;14.45;5.70;;;15.20;99.90;;;;;;5110811;28;20168;-65
2023/07/03 02:58:55;;;;;;;21.02;6.30;;;15.30;99.90;;;;;;5126327;28;20188;-65
2023/07/03 03:01:21;;;;;;;25.48;5.72;;;15.30;99.90;;;;;;5143787;27;20043;-65
2023/07/03 03:03:47;;;;;;;22.30;6.13;;;15.30;99.90;;;;;;5143925;27;20036;-65
2023/07/03 03:06:13;;;;;;;16.52;5.00;;;15.30;99.90;;;;;;5092308;28;20065;-66
2023/07/03 03:08:39;;;;;;;17.95;6.22;;;15.30;99.90;;;;;;5143588;27;20067;-65
2023/07/03 03:11:04;;;;;;;19.55;5.68;;;15.30;99.90;;;;;;5143728;27;20043;-65
2023/07/03 03:13:30;;;;;;;22.25;5.93;;;15.30;99.90;;;;;;5143820;27;20028;-65
2023/07/03 03:15:56;;;;;;;19.80;5.55;;;15.40;99.90;;;;;;5126748;27;20040;-65
2023/07/03 03:18:21;;;;;;;21.50;6.03;;;15.30;99.90;;;;;;5143295;27;20394;-65
2023/07/03 03:20:47;;;;;;;22.52;5.75;;;15.30;99.90;;;;;;5143830;27;20058;-65
2023/07/03 03:23:13;;;;;;;29.10;5.90;;;15.30;99.90;;;;;;5092033;28;20408;-65
2023/07/03 03:25:39;;;;;;;24.13;6.78;;;15.30;99.90;;;;;;5075377;28;20039;-65
2023/07/03 03:28:05;;;;;;;30.05;6.22;;;15.30;99.90;;;;;;5109916;28;20051;-65
2023/07/03 03:30:32;;;;;;;17.70;5.53;;;15.30;99.90;;;;;;5143466;27;20043;-65
2023/07/03 03:32:58;;;;;;;18.10;5.57;;;15.20;99.90;;;;;;5143459;27;20467;-65
2023/07/03 03:35:24;;;;;;;16.85;6.05;;;15.20;99.90;;;;;;5143476;27;20039;-65
2023/07/03 03:37:49;;;;;;;20.55;5.78;;;15.10;99.90;;;;;;5143209;27;20114;-65
2023/07/03 03:40:15;;;;;;;18.08;5.68;;;15.10;99.90;;;;;;5110212;28;20075;-65
2023/07/03 03:42:41;;;;;;;21.98;6.35;;;15.00;99.90;;;;;;5092055;28;20044;-65
2023/07/03 03:45:07;;;;;;;19.02;5.30;;;15.00;99.90;;;;;;5143322;27;20118;-65
2023/07/03 03:47:33;;;;;;;15.93;4.75;;;15.00;99.90;;;;;;5142895;27;20408;-65
2023/07/03 03:50:00;;;;;;;18.35;5.68;;;14.90;99.90;;;;;;5110074;28;20062;-65
2023/07/03 03:52:26;;;;;;;21.98;5.75;;;14.90;99.90;;;;;;5092157;28;20055;-66
2023/07/03 03:54:52;;;;;;;21.58;6.78;;;14.90;99.90;;;;;;5092073;28;20408;-66
2023/07/03 03:57:18;;;;;;;15.30;5.10;;;14.80;99.90;;;;;;5075366;28;20075;-65
2023/07/03 03:59:43;;;;;;;18.50;5.25;;;14.80;99.90;;;;;;5113615;28;20118;-65
2023/07/03 04:02:09;;;;;;;19.65;5.35;;;14.80;99.90;;;;;;5112702;27;20476;-65
2023/07/03 04:04:35;;;;;;;19.67;5.45;;;14.70;99.90;;;;;;5146882;27;20035;-65
2023/07/03 04:07:01;;;;;;;25.02;6.25;;;14.70;99.90;;;;;;5147235;27;20043;-65
2023/07/03 04:09:27;;;;;;;20.15;5.95;;;14.60;99.90;;;;;;5078996;28;20100;-65
2023/07/03 04:11:53;;;;;;;19.42;5.65;;;14.60;99.90;;;;;;5095431;28;20114;-65
2023/07/03 04:14:19;;;;;;;17.33;5.18;;;14.60;99.90;;;;;;5146749;27;20462;-66
2023/07/03 04:16:45;;;;;;;22.27;6.95;;;14.50;99.90;;;;;;5095236;28;20606;-66
2023/07/03 04:19:11;;;;;;;17.73;7.00;;;14.50;99.90;;;;;;5146655;27;20122;-66
2023/07/03 04:21:39;;;;;;;17.60;5.40;;;14.50;99.90;;;;;;5078546;28;20142;-65
2023/07/03 04:24:05;;;;;;;18.10;5.82;;;14.40;99.90;;;;;;5078499;28;20515;-65
2023/07/03 04:26:31;;;;;;;22.58;5.75;;;14.40;99.90;;;;;;5146550;27;20590;-65
2023/07/03 04:28:58;;;;;;;19.00;6.22;;;14.40;99.90;;;;;;5129231;27;20366;-65
2023/07/03 04:31:24;;;;;;;18.48;5.30;;;14.30;99.90;;;;;;5111999;28;20039;-65
2023/07/03 04:33:50;;;;;;;18.48;6.07;;;14.40;99.90;;;;;;5146284;27;20086;-65
2023/07/03 04:36:20;;;;;;;14.23;5.22;;;14.30;99.90;;;;;;5146655;27;20079;-65
2023/07/03 04:38:47;;;;;;;21.17;6.45;;;14.30;99.90;;;;;;5146474;27;20381;-65
2023/07/03 04:41:12;;;;;;;20.02;5.97;;;14.30;99.90;;;;;;5111827;28;20541;-65
2023/07/03 04:43:44;;;;;;;21.15;5.63;;;14.30;99.90;;;;;;5128643;27;20043;-65
2023/07/03 04:46:11;;;;;;;13.60;4.88;;;14.30;99.90;;;;;;5146553;27;20082;-65
2023/07/03 04:48:36;;;;;;;18.58;5.70;;;14.30;99.90;;;;;;5112959;28;20115;-65
2023/07/03 04:51:03;;;;;;;18.35;5.72;;;14.30;99.90;;;;;;5094390;28;20131;-65
2023/07/03 04:53:31;;;;;;;17.05;5.55;;;14.30;99.90;;;;;;5094604;28;20044;-65
2023/07/03 04:55:58;;;;;;;15.82;5.32;;;14.40;99.90;;;;;;5145942;27;20039;-65
2023/07/03 04:58:23;;;;;;;15.73;5.13;;;14.40;99.90;;;;;;5145621;27;20088;-65
2023/07/03 05:00:49;;;;;;;14.10;5.20;;;14.40;99.90;;;;;;5094499;28;20052;-65
2023/07/03 05:03:15;;;;;;;14.85;4.53;;;14.40;99.90;;;;;;5111361;28;20046;-65
2023/07/03 05:05:41;;;;;;;15.05;4.65;;;14.40;99.90;;;;;;5077824;28;20389;-65
2023/07/03 05:08:07;;;;;;;16.25;5.53;;;14.40;99.90;;;;;;5094268;28;20047;-65
2023/07/03 05:10:33;;;;;;;16.42;5.05;;;14.50;99.90;;;;;;5111149;28;20040;-65
2023/07/03 05:12:59;;;;;;;11.30;4.60;;;14.50;99.90;;;;;;5145577;27;20035;-65
2023/07/03 05:15:25;;;;;;;13.77;4.55;;;14.50;99.90;;;;;;5111445;27;20042;-65
2023/07/03 05:17:54;;;;;;;15.85;4.25;;;14.50;99.90;;;;;;5112359;28;20254;-65
2023/07/03 05:20:22;;;;;;;9.70;3.85;;;14.60;99.90;;;;;;5094046;28;20088;-65
2023/07/03 05:22:47;;;;;;;16.13;4.20;;;14.60;99.90;;;;;;5111105;28;20040;-65
2023/07/03 05:25:15;;;;;;;11.07;3.95;;;14.70;99.90;;;;;;5145335;27;20051;-67
2023/07/03 05:27:41;;;;;;;14.88;4.95;;;14.70;99.90;;;;;;5145078;27;20551;-65
2023/07/03 05:30:08;;;;;;;12.27;4.25;;;14.70;99.90;;;;;;5145385;27;20043;-65
2023/07/03 05:32:35;;;;;;;18.58;4.53;;;14.70;99.90;;;;;;5093902;28;20035;-65
2023/07/03 05:35:02;;;;;;;11.95;3.75;;;14.70;99.90;;;;;;5077037;28;20040;-67
2023/07/03 05:37:28;;;;;;;17.60;4.47;;;14.70;99.90;;;;;;5094032;28;20072;-65
2023/07/03 05:39:55;;;;;;;12.90;4.03;;;14.80;99.90;;;;;;5127741;27;20039;-66
2023/07/03 05:42:22;;;;;;;9.70;3.67;;;14.80;99.90;;;;;;5077182;28;20071;-66
2023/07/03 05:44:48;;;;;;;11.82;3.60;;;14.80;99.90;;;;;;5093471;28;20492;-65
2023/07/03 05:47:15;;;;;;;13.35;4.10;;;14.90;99.90;;;;;;5093483;28;20073;-66
2023/07/03 05:49:40;;;;;;;10.73;3.38;;;14.90;99.90;;;;;;5111514;28;20035;-65
2023/07/03 05:52:07;;;;;;;8.90;3.70;;;14.90;99.90;;;;;;5110444;28;20055;-65
2023/07/03 05:54:33;;;;;;;16.40;3.65;;;15.00;99.90;;;;;;5110182;28;20039;-65
2023/07/03 05:57:00;;;;;;;12.10;3.15;;;15.00;99.90;;;;;;5144839;27;20036;-66
2023/07/03 05:59:26;;;;;;;13.60;3.72;;;15.10;99.90;;;;;;5092968;28;20039;-67
2023/07/03 06:01:54;;;;;;;11.75;3.22;;;15.10;99.90;;;;;;5093463;28;20044;-67
2023/07/03 06:04:22;;;;;;;13.07;3.78;;;15.20;99.90;;;;;;5093241;28;20054;-66
2023/07/03 06:06:49;;;;;;;12.73;3.55;;;15.30;99.90;;;;;;5127812;27;20035;-66
2023/07/03 06:09:15;;;;;;;8.52;3.40;;;15.30;99.90;;;;;;5093551;28;20569;-66
2023/07/03 06:11:40;;;;;;;16.60;3.72;;;15.40;99.90;;;;;;5093008;28;20481;-67
2023/07/03 06:14:13;;;;;;;11.50;3.38;;;15.50;99.90;;;;;;5144511;27;20097;-67
2023/07/03 06:16:39;;;;;;;;;;;15.50;99.90;;;;;;5127799;27;20044;-67
2023/07/03 06:19:04;;;;;;;13.48;3.42;;;15.50;99.90;;;;;;5093294;28;20011;-66
2023/07/03 06:21:30;;;;;;;12.70;3.15;;;15.60;99.90;;;;;;5092547;28;20100;-66
2023/07/03 06:23:56;;;;;;;9.98;3.55;;;15.60;99.90;;;;;;5109934;28;20656;-66
2023/07/03 06:26:21;;;;;;;14.57;4.38;;;15.70;99.90;;;;;;5076129;28;20145;-67
2023/07/03 06:28:47;;;;;;;9.93;3.63;;;15.70;99.90;;;;;;5092642;28;20048;-67
2023/07/03 06:31:13;;;;;;;9.15;3.00;;;15.80;99.90;;;;;;5092680;28;20050;-67
2023/07/03 06:33:38;;;;;;;9.00;2.83;;;15.90;99.90;;;;;;5143957;27;20047;-67
2023/07/03 06:36:04;;;;;;;15.25;3.25;;;15.90;99.90;;;;;;5144211;27;20047;-67
2023/07/03 06:38:30;;;;;;;13.75;3.45;;;16.00;99.90;;;;;;5109498;28;20542;-67
2023/07/03 06:40:59;;;;;;;8.00;2.60;;;16.00;99.90;;;;;;5143705;27;20166;-67
2023/07/03 06:43:25;;;;;;;6.90;2.95;;;16.10;99.90;;;;;;5143986;27;20039;-68
2023/07/03 06:45:51;;;;;;;8.45;2.72;;;16.10;99.90;;;;;;5143844;27;20054;-66
2023/07/03 06:48:17;;;;;;;10.98;3.72;;;16.10;99.90;;;;;;5110816;28;20039;-67
2023/07/03 06:50:43;;;;;;;8.23;2.63;;;16.10;99.90;;;;;;5092419;28;20051;-67
2023/07/03 06:53:09;;;;;;;10.02;2.65;;;16.20;99.90;;;;;;5143818;27;20044;-67
2023/07/03 06:55:35;;;;;;;8.40;2.50;;;16.20;99.90;;;;;;5144030;27;20162;-67
2023/07/03 06:58:02;;;;;;;9.45;2.60;;;16.20;99.90;;;;;;5144059;27;20481;-67
2023/07/03 07:00:29;;;;;;;12.05;2.80;;;16.30;99.90;;;;;;5143782;27;20346;-67
2023/07/03 07:02:54;;;;;;;7.93;2.10;;;16.30;99.90;;;;;;5110839;28;20051;-67
2023/07/03 07:05:21;;;;;;;8.93;2.80;;;16.40;99.90;;;;;;5143882;27;20040;-68
2023/07/03 07:07:46;;;;;;;9.57;2.60;;;16.50;99.90;;;;;;5109283;28;20036;-68
2023/07/03 07:10:12;;;;;;;13.30;3.28;;;16.60;99.90;;;;;;5143890;27;20040;-68
2023/07/03 07:12:38;;;;;;;6.47;2.22;;;16.70;99.90;;;;;;5143660;27;20036;-67
2023/07/03 07:15:04;;;;;;;12.02;3.08;;;16.80;99.90;;;;;;5075685;28;20285;-68
2023/07/03 07:17:30;;;;;;;10.55;3.28;;;16.90;99.90;;;;;;5092533;28;20047;-67
2023/07/03 07:19:56;;;;;;;9.57;2.83;;;17.10;99.90;;;;;;5143739;27;20239;-68
2023/07/03 07:22:22;;;;;;;6.68;2.28;;;17.20;99.90;;;;;;5143527;27;20035;-67
2023/07/03 07:24:47;;;;;;;6.10;2.22;;;17.30;99.90;;;;;;5144013;27;20043;-68
2023/07/03 07:27:13;;;;;;;6.68;2.60;;;17.30;99.90;;;;;;5092106;28;20038;-67
2023/07/03 07:29:40;;;;;;;5.70;2.58;;;17.30;99.90;;;;;;5075519;28;20040;-68
2023/07/03 07:32:06;;;;;;;8.80;2.40;;;17.20;99.90;;;;;;5143394;27;20122;-68
2023/07/03 07:34:31;;;;;;;8.27;2.40;;;17.20;99.90;;;;;;5130341;27;20039;-68
2023/07/03 07:36:58;;;;;;;8.52;2.35;;;17.20;99.90;;;;;;5096013;28;20383;-68
2023/07/03 07:39:26;;;;;;;7.70;2.13;;;17.10;99.90;;;;;;5113148;28;20035;-67
2023/07/03 07:41:51;;;;;;;6.85;2.33;;;17.20;99.90;;;;;;5113200;28;20046;-67
2023/07/03 07:44:18;;;;;;;7.07;2.13;;;17.30;99.90;;;;;;5096068;28;20044;-66
2023/07/03 07:46:44;;;;;;;8.90;2.50;;;17.40;99.90;;;;;;5147611;27;20370;-67
2023/07/03 07:49:10;;;;;;;6.53;2.15;;;17.40;99.90;;;;;;5147151;27;20051;-66
2023/07/03 07:51:35;;;;;;;9.38;2.42;;;17.30;99.90;;;;;;5078620;28;20051;-67
2023/07/03 07:54:03;;;;;;;9.95;3.00;;;17.20;99.90;;;;;;5096179;28;20050;-67
2023/07/03 07:56:28;;;;;;;8.43;2.75;;;17.10;99.90;;;;;;5112651;28;20120;-66
2023/07/03 07:58:54;;;;;;;7.85;2.30;;;17.00;99.90;;;;;;5078653;28;20148;-66
2023/07/03 08:01:20;;;;;;;12.45;3.55;;;16.80;99.90;;;;;;5079086;28;20050;-66
2023/07/03 08:03:46;;;;;;;6.65;2.45;;;16.80;99.90;;;;;;5095597;28;20526;-66
2023/07/03 08:06:13;;;;;;;7.63;3.20;;;16.70;99.90;;;;;;5095812;28;20381;-67
2023/07/03 08:08:39;;;;;;;9.32;2.75;;;16.90;99.90;;;;;;5147183;27;20342;-66
2023/07/03 08:11:07;;;;;;;9.63;2.70;;;17.20;99.90;;;;;;5129559;27;20526;-66
2023/07/03 08:13:34;;;;;;;8.13;2.53;;;17.50;99.90;;;;;;5113579;28;20039;-66
2023/07/03 08:16:00;;;;;;;8.98;2.78;;;17.70;99.90;;;;;;5146787;27;20031;-66
2023/07/03 08:18:26;;;;;;;10.80;2.65;;;17.80;99.90;;;;;;5095210;28;20555;-67
2023/07/03 08:20:52;;;;;;;11.10;2.72;;;18.00;99.90;;;;;;5112290;28;20036;-66
2023/07/03 08:23:18;;;;;;;8.13;2.45;;;18.10;99.90;;;;;;5095168;28;20043;-66
2023/07/03 08:25:51;;;;;;;10.88;2.60;;;18.20;99.90;;;;;;5146805;27;20046;-66
2023/07/03 08:28:17;;;;;;;6.43;2.20;;;18.20;99.90;;;;;;5146063;27;20110;-67
2023/07/03 08:30:43;;;;;;;10.02;2.63;;;18.30;99.90;;;;;;5078310;28;20076;-67
2023/07/03 08:33:08;;;;;;;5.53;1.88;;;18.30;99.90;;;;;;5094845;28;20103;-67
2023/07/03 08:35:34;;;;;;;5.50;2.30;;;18.20;99.90;;;;;;5146849;27;20092;-66
2023/07/03 08:38:00;;;;;;;6.53;2.30;;;18.10;99.90;;;;;;5111894;28;20063;-67
2023/07/03 08:40:29;;;;;;;3.75;1.73;;;18.20;99.90;;;;;;5129139;27;20046;-66
2023/07/03 08:42:59;;;;;;;5.75;1.83;;;18.40;99.90;;;;;;5094941;28;20127;-66
2023/07/03 08:45:35;;;;;;;4.53;1.35;;;18.60;99.90;;;;;;5094430;28;20088;-68
2023/07/03 08:48:06;;;;;;;5.00;1.40;;;18.80;99.40;;;;;;5111736;28;20522;-66
2023/07/03 08:50:33;;;;;;;15.25;1.80;;;19.00;98.50;;;;;;5145809;27;20060;-68
2023/07/03 08:53:04;;;;;;;7.95;1.60;;;19.20;99.00;;;;;;5128733;27;20518;-68
2023/07/03 08:56:08;;;;;;;5.30;1.60;;;19.40;97.80;;;;;;5111859;27;20043;-67
2023/07/03 08:58:34;;;;;;;7.38;1.80;;;19.60;97.30;;;;;;5118790;27;20044;-66
2023/07/03 09:01:08;;;;;;;7.90;1.75;;;19.70;96.90;;;;;;5094557;28;20046;-67
2023/07/03 09:04:07;;;;;;;4.72;1.67;;;19.80;97.10;;;;;;5112638;28;20079;-68
2023/07/03 09:06:52;;;;;;;4.85;1.70;;;19.90;96.00;;;;;;5094565;28;20043;-68
2023/07/03 09:09:23;;;;;;;5.45;1.77;;;20.00;95.10;;;;;;5145745;27;20043;-67
2023/07/03 09:12:00;;;;;;;5.75;1.95;;;20.00;95.60;;;;;;5145634;27;20089;-66
2023/07/03 09:14:29;;;;;;;6.45;1.70;;;19.80;93.80;;;;;;5145499;27;20039;-68
2023/07/03 09:16:56;;;;;;;4.68;1.70;;;19.60;94.40;;;;;;5094353;28;20467;-67
2023/07/03 09:19:26;;;;;;;9.10;1.85;;;19.40;94.80;;;;;;5145559;27;20039;-68
2023/07/03 09:21:56;;;;;;;4.40;1.55;;;19.20;94.00;;;;;;5145865;27;20043;-67
2023/07/03 09:24:30;;;;;;;5.68;2.03;;;19.00;95.30;;;;;;5111114;28;20040;-67
2023/07/03 09:27:14;;;;;;;3.63;1.63;;;18.90;94.90;;;;;;5110909;28;20039;-67
2023/07/03 09:29:41;;;;;;;5.82;2.40;;;18.80;94.80;;;;;;5144835;27;20048;-66
2023/07/03 09:32:10;;;;;;;4.60;1.80;;;18.70;94.90;;;;;;5145247;27;20101;-67
2023/07/03 09:35:05;;;;;;;5.85;1.80;;;18.60;95.40;;;;;;5094689;28;20127;-67
2023/07/03 09:37:38;;;;;;;6.57;1.80;;;18.70;94.90;;;;;;5110607;28;20496;-67
2023/07/03 09:40:09;;;;;;;6.05;2.33;;;18.70;95.20;;;;;;5144981;27;20122;-67
2023/07/03 09:42:35;;;;;;;5.78;1.77;;;18.70;95.50;;;;;;5110810;28;20039;-67
2023/07/03 09:45:11;;;;;;;4.95;1.88;;;18.90;96.20;;;;;;5145369;27;20071;-67
2023/07/03 09:47:37;;;;;;;5.72;2.08;;;19.10;96.10;;;;;;5093592;28;20032;-67
2023/07/03 09:50:08;;;;;;;5.53;1.80;;;19.30;95.40;;;;;;5127293;27;20496;-68
2023/07/03 09:52:42;;;;;;;8.52;2.42;;;19.30;94.60;;;;;;5144867;27;20052;-68
2023/07/03 09:55:07;;;;;;;6.53;2.08;;;19.30;94.60;;;;;;5126844;27;20038;-66
2023/07/03 09:57:35;;;;;;;6.10;2.30;;;19.40;95.00;;;;;;5110169;28;20036;-67
2023/07/03 10:00:27;;;;;;;6.97;2.20;;;19.50;94.80;;;;;;5144627;27;20035;-67
2023/07/03 10:02:57;;;;;;;7.82;2.20;;;19.50;94.50;;;;;;5107719;28;20207;-67
2023/07/03 10:05:33;;;;;;;7.80;2.85;;;19.40;94.70;;;;;;5093604;28;20443;-67
2023/07/03 10:08:01;;;;;;;7.32;2.00;;;19.50;95.20;;;;;;5144573;27;20031;-66
2023/07/03 10:10:29;;;;;;;7.72;2.40;;;19.70;95.10;;;;;;5144427;27;20032;-66
2023/07/03 10:13:06;;;;;;;7.00;2.28;;;19.60;94.90;;;;;;5093605;28;20432;-66
2023/07/03 10:15:39;;;;;;;8.95;2.30;;;19.50;95.40;;;;;;5110113;28;20054;-67
2023/07/03 10:18:12;;;;;;;8.43;2.58;;;19.30;95.50;;;;;;5144301;27;20036;-66
2023/07/03 10:20:46;;;;;;;8.82;2.50;;;19.00;96.00;;;;;;5144499;27;20074;-67
2023/07/03 10:23:23;;;;;;;6.97;2.53;;;18.80;96.20;;;;;;5144553;27;20389;-66
2023/07/03 10:26:04;;;;;;;8.02;2.53;;;18.80;96.40;;;;;;5109958;28;20036;-66
2023/07/03 10:28:43;;;;;;;9.32;2.75;;;18.80;96.60;;;;;;5110821;28;20039;-68
2023/07/03 10:31:18;;;;;;;7.25;2.30;;;18.90;96.70;;;;;;5092802;28;20409;-66
2023/07/03 10:33:47;;;;;;;8.93;1.90;;;18.90;96.90;;;;;;5093036;28;20481;-66
2023/07/03 10:36:20;;;;;;;7.85;2.00;;;18.90;96.90;;;;;;5110933;28;20082;-67
2023/07/03 10:39:05;;;;;;;8.60;2.50;;;18.90;96.70;;;;;;5144169;27;20443;-66
2023/07/03 10:41:47;;;;;;;6.50;2.15;;;18.90;96.80;;;;;;5110929;28;20098;-66
2023/07/03 10:44:18;;;;;;;8.02;1.92;;;19.10;96.20;;;;;;5144183;27;20043;-66
2023/07/03 10:46:58;;;;;;;5.90;1.75;;;19.10;95.50;;;;;;5109854;28;20058;-66
2023/07/03 10:49:29;;;;;;;10.75;1.95;;;19.20;94.60;;;;;;5092495;28;20046;-67
2023/07/03 10:52:05;;;;;;;5.45;1.67;;;19.10;94.40;;;;;;5110658;28;20052;-67
2023/07/03 10:54:50;;;;;;;4.28;1.55;;;19.00;94.50;;;;;;5092799;28;20078;-67
2023/07/03 10:57:22;;;;;;;6.78;2.40;;;19.00;94.60;;;;;;5143816;27;20115;-66
2023/07/03 10:59:50;;;;;;;;;;;19.00;94.50;;;;;;5092694;28;20036;-67
2023/07/03 11:02:37;;;;;;;3.88;1.33;;;19.00;93.40;;;;;;5109769;28;20326;-67
2023/07/03 11:05:03;;;;;;;4.43;1.90;;;19.10;94.30;;;;;;5143950;27;20051;-66
2023/07/03 11:07:44;;;;;;;9.20;1.95;;;19.40;94.50;;;;;;5146446;27;20032;-66
2023/07/03 11:10:24;;;;;;;4.82;1.65;;;19.50;93.90;;;;;;5148174;27;20043;-66
2023/07/03 11:12:56;;;;;;;4.28;2.15;;;19.90;93.80;;;;;;5096622;28;20032;-66
2023/07/03 11:15:43;;;;;;;4.40;1.40;;;20.10;93.10;;;;;;5148249;27;20035;-66
2023/07/03 11:18:28;;;;;;;6.05;1.80;;;20.10;92.50;;;;;;5148090;27;20035;-66
2023/07/03 11:21:03;;;;;;;3.28;1.50;;;20.00;93.10;;;;;;5148165;27;20055;-65
2023/07/03 11:23:59;;;;;;;5.43;1.95;;;19.70;92.40;;;;;;5147716;27;20086;-66
2023/07/03 11:26:36;;;;;;;5.57;1.70;;;19.80;92.90;;;;;;5113722;28;20048;-64
2023/07/03 11:29:03;;;;;;;6.28;1.73;;;19.90;92.10;;;;;;5114333;28;20043;-66
2023/07/03 11:31:31;;;;;;;4.07;1.48;;;19.70;91.20;;;;;;5147489;27;20048;-66
2023/07/03 11:33:57;;;;;;;5.32;1.85;;;19.60;92.00;;;;;;5113457;28;20043;-66
2023/07/03 11:36:41;;;;;;;5.95;1.35;;;19.40;92.20;;;;;;5147944;27;20126;-66
2023/07/03 11:39:33;;;;;;;4.93;1.90;;;19.60;93.00;;;;;;5113345;28;20120;-66
2023/07/03 11:42:02;;;;;;;2.88;1.33;;;20.00;93.30;;;;;;5096241;28;20583;-66
2023/07/03 11:44:28;;;;;;;5.63;1.73;;;20.10;91.40;;;;;;5112896;28;20043;-65
2023/07/03 11:47:05;;;;;;;5.05;1.92;;;20.10;91.10;;;;;;5147303;27;20036;-67
2023/07/03 11:49:34;;;;;;;5.40;1.80;;;19.90;92.20;;;;;;5112838;28;20044;-66
2023/07/03 11:52:03;;;;;;;5.15;1.70;;;19.70;92.70;;;;;;5095540;28;20055;-65
2023/07/03 11:54:35;;;;;;;4.22;1.48;;;19.40;92.50;;;;;;5114223;28;20118;-67
2023/07/03 11:57:07;;;;;;;4.28;1.70;;;19.20;93.00;;;;;;5112525;28;20496;-66
2023/07/03 11:59:41;;;;;;;;;;;19.40;93.50;;;;;;5147668;27;20028;-66
2023/07/03 12:02:10;;;;;;;4.22;1.77;;;19.60;93.10;;;;;;5112790;28;19915;-66
2023/07/03 12:04:50;;;;;;;6.28;2.25;;;19.90;93.40;;;;;;5112750;28;20044;-66
2023/07/03 12:07:19;;;;;;;5.45;1.50;;;19.90;92.20;;;;;;5095987;28;20512;-66
2023/07/03 12:09:46;;;;;;;3.05;1.20;;;19.80;91.70;;;;;;5147210;27;20078;-66
2023/07/03 12:12:24;;;;;;;5.80;1.73;;;20.00;92.40;;;;;;5095172;28;20039;-66
2023/07/03 12:14:58;;;;;;;6.97;1.63;;;20.10;93.10;;;;;;5112492;28;20118;-65
2023/07/03 12:17:35;;;;;;;6.43;1.58;;;20.40;92.40;;;;;;5146717;27;20036;-64
2023/07/03 12:20:06;;;;;;;6.25;1.77;;;20.40;91.50;;;;;;5111484;28;20051;-66
2023/07/03 12:22:38;;;;;;;6.90;1.98;;;20.30;91.40;;;;;;5146566;27;20052;-66
2023/07/03 12:25:08;;;;;;;4.10;1.70;;;20.30;92.10;;;;;;5147075;27;20037;-66
2023/07/03 12:27:36;;;;;;;5.75;1.70;;;20.20;91.70;;;;;;5146486;27;20036;-67
2023/07/03 12:30:03;;;;;;;4.07;1.85;;;20.00;91.90;;;;;;5146484;27;20040;-66
2023/07/03 12:32:32;;;;;;;4.93;1.90;;;19.90;91.50;;;;;;5146168;27;20066;-66
2023/07/03 12:35:13;;;;;;;5.07;2.00;;;19.50;90.90;;;;;;5146888;27;20058;-66
2023/07/03 12:37:45;;;;;;;8.95;1.88;;;19.30;91.30;;;;;;5146094;27;20050;-66
2023/07/03 12:40:13;;;;;;;3.37;1.50;;;19.30;91.90;;;;;;5095263;28;20035;-66
2023/07/03 12:42:39;;;;;;;4.82;1.60;;;19.30;92.40;;;;;;5111773;28;20295;-66
2023/07/03 12:45:23;;;;;;;8.00;1.63;;;19.40;92.50;;;;;;5095167;28;20058;-67
2023/07/03 12:48:09;;;;;;;4.80;1.77;;;19.50;91.70;;;;;;5145997;27;20118;-66
2023/07/03 12:50:49;;;;;;;3.65;1.70;;;19.50;91.80;;;;;;5095066;28;20055;-66
2023/07/03 12:53:15;;;;;;;6.63;1.77;;;19.40;91.00;;;;;;5145876;27;20547;-66